EW6135 Weather Reports


Display with metric or nautical units.
time (UTC)temp
F
wind
direction
speed
MPH
gust
MPH
rain 1hr
in
rain 24hr
in
rain mn
in
humidity
%
barometer
mb
20210624161527 76 35 2.0 10.0 0.00 0.00 0.00 71 1024.3
20210624160027 75 104 3.0 9.0 0.00 0.00 0.00 72 1024.2
20210624154516 74 347 4.0 12.0 0.00 0.00 0.00 72 1024.2
20210624153005 75 41 4.0 14.0 0.00 0.00 0.00 69 1024.2
20210624151512 75 62 3.0 9.0 0.00 0.00 0.00 72 1024.6
20210624150013 74 61 3.0 8.0 0.00 0.00 0.00 74 1024.6
20210624144502 74 44 3.0 11.0 0.00 0.00 0.00 72 1024.7
20210624143001 74 56 4.0 9.0 0.00 0.00 0.00 69 1024.4
20210624141717 74 48 4.0 11.0 0.00 0.00 0.00 73 1024.6
20210624140202 73 100 2.0 8.0 0.00 0.00 0.00 73 1024.5
20210624134631 72 91 5.0 14.0 0.00 0.00 0.00 71 1024.4
20210624134613 72 43 6.0 14.0 0.00 0.00 0.00 71 1024.5
20210624133129 72 98 4.0 10.0 0.00 0.00 0.00 71 1024.3
20210624131652 73 21 5.0 12.0 0.00 0.00 0.00 71 1024.3
20210624130246 72 71 3.0 11.0 0.00 0.00 0.00 71 1024.3
20210624124608 71 61 2.0 9.0 0.00 0.00 0.00 74 1024.2
20210624123215 71 149 4.0 7.0 0.00 0.00 0.00 73 1024.2
20210624121632 70 125 3.0 8.0 0.00 0.00 0.00 73 1023.9
20210624120125 69 82 4.0 8.0 0.00 0.00 0.00 75 1023.8
20210624114645 69 60 2.0 7.0 0.00 0.00 0.00 76 1023.6
20210624113148 68 57 2.0 6.0 0.00 0.00 0.00 80 1023.4
20210624111649 66 83 1.0 5.0 0.00 0.00 0.00 83 1023.4
20210624110058 61 109 0.0 1.0 0.00 0.00 0.00 91 1023.3
20210624104702 60 238 0.0 1.0 0.00 0.00 0.00 92 1023.4
20210624103200 59 282 0.0 1.0 0.00 0.00 0.00 93 1023.4
20210624101612 58 283 0.0 1.0 0.00 0.00 0.00 95 1023.4
20210624100104 58 281 0.0 1.0 0.00 0.00 0.00 94 1023.4
20210624094545 58 275 0.0 0.0 0.00 0.00 0.00 93 1023.5
20210624093038 58 276 0.0 1.0 0.00 0.00 0.00 92 1023.5
20210624091609 59 275 0.0 1.0 0.00 0.00 0.00 92 1023.4
20210624090036 58 238 0.0 1.0 0.00 0.00 0.00 93 1023.2
20210624084534 58 266 0.0 1.0 0.00 0.00 0.00 92 1023.2
20210624083113 58 266 0.0 1.0 0.00 0.00 0.00 91 1023.2
20210624081542 58 157 0.0 0.0 0.00 0.00 0.00 90 1023.2
20210624080033 59 156 0.0 0.0 0.00 0.00 0.00 86 1023.2
20210624074532 59 259 0.0 0.0 0.00 0.00 0.00 86 1023.0
20210624073032 59 259 0.0 0.0 0.00 0.00 0.00 85 1023.2
20210624071519 59 259 0.0 0.0 0.00 0.00 0.00 85 1023.3
20210624070035 58 349 0.0 0.0 0.00 0.00 0.00 86 1023.3
20210624064515 58 349 0.0 0.0 0.00 0.00 0.00 85 1023.5
20210624063010 59 349 0.0 0.0 0.00 0.00 0.00 83 1023.6
20210624061513 59 81 0.0 0.0 0.00 0.00 0.00 82 1023.7
20210624060005 61 81 0.0 1.0 0.00 0.00 0.00 77 1023.7
20210624054507 62 81 0.0 3.0 0.00 0.00 0.00 76 1023.7
20210624053031 62 79 0.0 3.0 0.00 0.00 0.00 75 1023.8
20210624051504 63 72 1.0 4.0 0.00 0.00 0.00 75 1023.9
20210624050003 63 77 1.0 4.0 0.00 0.01 0.00 77 1023.9
20210624044629 63 105 1.0 4.0 0.00 0.01 0.00 78 1023.9
20210624043141 62 138 1.0 4.0 0.00 0.01 0.00 80 1024.0
20210624041641 63 53 0.0 2.0 0.00 0.01 0.00 79 1024.0
20210624040117 63 81 0.0 3.0 0.00 0.01 0.01 78 1023.9
20210624034615 64 115 0.0 3.0 0.00 0.01 0.01 75 1023.9
20210624033201 64 89 0.0 4.0 0.00 0.01 0.01 75 1024.0
20210624031610 64 66 1.0 4.0 0.00 0.01 0.01 74 1024.0
20210624030201 64 49 1.0 4.0 0.00 0.01 0.01 74 1024.0
20210624024830 64 50 1.0 4.0 0.00 0.01 0.01 75 1024.0
20210624023120 64 115 1.0 3.0 0.00 0.01 0.01 78 1023.9
20210624021720 63 125 0.0 2.0 0.00 0.01 0.01 80 1023.9
20210624020150 64 101 0.0 2.0 0.00 0.20 0.01 80 1023.7
20210624014629 64 101 0.0 2.0 0.00 0.20 0.01 79 1023.5
20210624013109 65 102 0.0 3.0 0.00 0.20 0.01 77 1023.4
20210624011600 66 93 1.0 4.0 0.00 0.20 0.01 76 1023.3
20210624010105 67 68 1.0 4.0 0.00 0.33 0.01 75 1023.2
20210624004604 67 89 0.0 3.0 0.00 0.33 0.01 73 1023.2
20210624003048 68 78 1.0 3.0 0.00 0.33 0.01 71 1023.2
20210624001549 69 68 1.0 6.0 0.00 0.33 0.01 69 1023.1
20210624000040 70 70 1.0 6.0 0.00 0.44 0.01 69 1023.2
20210623234624 71 56 2.0 10.0 0.00 0.44 0.01 67 1023.0
20210623233111 72 45 2.0 13.0 0.00 0.44 0.01 66 1022.8
20210623231557 73 64 3.0 12.0 0.00 0.44 0.01 64 1022.7
20210623224543 74 43 5.0 12.0 0.00 0.55 0.01 62 1022.6
20210623223100 74 91 3.0 10.0 0.00 0.55 0.01 60 1022.5
20210623221557 75 71 4.0 17.0 0.00 0.55 0.01 59 1022.3
20210623220042 75 68 3.0 10.0 0.00 0.55 0.01 60 1022.1
20210623214535 75 49 3.0 10.0 0.00 0.55 0.01 61 1022.0
20210623213119 75 96 5.0 11.0 0.00 0.55 0.01 58 1022.0
20210623211602 76 59 4.0 11.0 0.00 0.55 0.01 56 1021.8
20210623210107 76 38 3.0 12.0 0.00 0.56 0.01 61 1021.7
20210623204518 76 65 5.0 13.0 0.00 0.56 0.01 60 1021.7
20210623203023 76 88 7.0 14.0 0.00 0.56 0.01 58 1021.7
20210623201516 76 119 6.0 15.0 0.00 0.56 0.01 61 1021.4
20210623200017 76 96 5.0 15.0 0.00 0.59 0.01 60 1021.4
20210623194520 76 45 8.0 14.0 0.00 0.59 0.01 60 1021.4
20210623193049 77 30 4.0 13.0 0.00 0.59 0.01 62 1021.4
20210623191513 76 28 4.0 20.0 0.00 0.59 0.01 61 1021.7
20210623190013 76 32 4.0 14.0 0.00 0.59 0.01 67 1021.5
20210623184514 76 68 6.0 12.0 0.00 0.59 0.01 62 1021.3
20210623183026 76 75 5.0 15.0 0.00 0.59 0.01 60 1021.5
20210623181507 76 196 2.0 13.0 0.00 0.59 0.01 66 1021.3
20210623180028 76 86 8.0 15.0 0.00 0.63 0.01 62 1021.4
20210623174514 76 82 5.0 12.0 0.00 0.63 0.01 63 1021.5
20210623173017 76 97 5.0 14.0 0.00 0.63 0.01 66 1021.5
20210623171505 76 96 7.0 14.0 0.00 0.63 0.01 65 1021.4
20210623170003 75 68 8.0 17.0 0.00 0.68 0.01 67 1021.4
20210623164503 74 66 3.0 13.0 0.00 0.68 0.01 68 1021.5
20210623163005 74 136 5.0 13.0 0.00 0.68 0.01 67 1021.5
20210623161746 73 70 4.0 14.0 0.00 0.68 0.01 68 1021.4